A- A+ FrançaisEnglishEspañol中国

le plus proche LFBT Tarbes-Lourdes-PyrénéesLFLN St-Yan LFGN Paray-Le-Monial LFKJ Ajaccio-Napoléon-Bonaparte

manche à air

La météo aéronautique pour les pilotes, la préparation du vol avec les METAR (METeorological Aerodrome Report, message d'observation des conditions météorologiques pour l'aviation) et Les TAF (Terminal Aerodrome Forecast : message de prévision à court terme des conditions météorologiques pour l'aviation). Et les autres ressources comme les VAC (Visual Approch Chart) et les NOTAM (Notice To Airman) pour préprer les vols.

Aéroport Kano Mallam Aminu Intl (Nigéria) / OACI DNKN/ IATA KAN

L'altitude de l'aéroport Kano Mallam Aminu Intl est de 476 m=1562 ft. Il est situé à proximité de Kano (Nigéria). La météo générale à 5 jours est disponible pour Wudil situé à 43.7 km.

METAR de l'aéroport Kano Mallam Aminu Intl - DNKN

DNKN 291200Z 26008KT 9999 SCT012 32/24 Q1014 NOSIG

Décodage du METAR de l'aéroport Kano Mallam Aminu Intl (NG)

METAR émis par DNKN le dimanche 29 septembre 2019 à 12:00 heure TU. Attention ce METAR est obsolète car il a été émis il y a 5 heure et 48 minutes.

La visibilité est de supérieure à 10 km=supérieure à 6.2 sm.

La température est de 32°C=90 °F et le point rosée est de 24°C=75 °F . Ce qui correspond à 63% d'humidité relative.

Le QNH est de 1014 hPa=29.94 inHg

Vent de 8 kt=15 km/h, orienté à 260°.

Nuages : Nuages épars à 1200 ft=370 mètres.

Aucun changement significatif dans les deux heures à venir

TAF de l'aéroport Kano Mallam Aminu Intl - DNKN

DNKN 291100Z 2912/3018 26006KT 9999 FEW012 TEMPO 2915/2920 TS SCT011 FEW019CB

DNKN 291100Z 2912/3018 26006KT 9999 quelques nuages à 012 temporairement 2915/2920 orage nuages épars à 011 quelques nuages à 019CB

Aéroport à proximité de Kano Mallam Aminu Intl

Météo générale à 5 jours à Wudil (43.7 km)DNZA Aéroport Zaria (137 km)DRRA Aéroport Teesaoua (198 km)DRZR Aéroport Zinder (199 km)DNGU Aéroport Gusau (199 km)DNKA Aéroport Kaduna (200 km)DRRM Aéroport Maradi (222 km)

Vue aérienne de l'aéroport Kano Mallam Aminu Intl

NOTAM de l'aéroport Kano Mallam Aminu Intl

Les NOTAM sont fournis sans aucune garantie de leur actualité. Le pilote est le seul responsable de la vérification de sa validité avant de l'utiliser opérationnellement pour préparer un vol ou l'utiliser lors de sa navigation.

Pas de NOTAM

Sources des données